sensor_id;sensor_type;location;lat;lon;timestamp;temperature;humidity
48551;DHT22;34397;51.176;6.738;2023-02-28T00:02:16;3.70;53.00
48551;DHT22;34397;51.176;6.738;2023-02-28T00:04:49;3.60;53.00
48551;DHT22;34397;51.176;6.738;2023-02-28T00:07:23;3.60;52.90
48551;DHT22;34397;51.176;6.738;2023-02-28T00:09:55;3.60;53.10
48551;DHT22;34397;51.176;6.738;2023-02-28T00:12:27;3.60;53.40
48551;DHT22;34397;51.176;6.738;2023-02-28T00:14:59;3.50;53.10
48551;DHT22;34397;51.176;6.738;2023-02-28T00:17:31;3.50;53.10
48551;DHT22;34397;51.176;6.738;2023-02-28T00:20:06;3.40;53.20
48551;DHT22;34397;51.176;6.738;2023-02-28T00:22:43;3.40;53.10
48551;DHT22;34397;51.176;6.738;2023-02-28T00:25:17;3.40;53.40
48551;DHT22;34397;51.176;6.738;2023-02-28T00:27:50;3.30;53.50
48551;DHT22;34397;51.176;6.738;2023-02-28T00:30:23;3.30;53.60
48551;DHT22;34397;51.176;6.738;2023-02-28T00:32:55;3.30;53.90
48551;DHT22;34397;51.176;6.738;2023-02-28T00:35:28;3.20;54.20
48551;DHT22;34397;51.176;6.738;2023-02-28T00:38:00;3.20;54.40
48551;DHT22;34397;51.176;6.738;2023-02-28T00:40:32;3.20;54.50
48551;DHT22;34397;51.176;6.738;2023-02-28T00:43:04;3.20;54.60
48551;DHT22;34397;51.176;6.738;2023-02-28T00:45:36;3.20;54.60
48551;DHT22;34397;51.176;6.738;2023-02-28T00:48:08;3.10;54.50
48551;DHT22;34397;51.176;6.738;2023-02-28T00:50:41;3.10;54.70
48551;DHT22;34397;51.176;6.738;2023-02-28T00:53:13;3.10;54.90
48551;DHT22;34397;51.176;6.738;2023-02-28T00:55:44;3.00;54.80
48551;DHT22;34397;51.176;6.738;2023-02-28T00:58:16;3.00;54.90
48551;DHT22;34397;51.176;6.738;2023-02-28T01:00:48;3.00;54.80
48551;DHT22;34397;51.176;6.738;2023-02-28T01:03:21;3.00;54.80
48551;DHT22;34397;51.176;6.738;2023-02-28T01:05:55;3.00;54.80
48551;DHT22;34397;51.176;6.738;2023-02-28T01:08:27;2.90;54.70
48551;DHT22;34397;51.176;6.738;2023-02-28T01:11:07;2.90;55.20
48551;DHT22;34397;51.176;6.738;2023-02-28T01:13:40;2.90;55.10
48551;DHT22;34397;51.176;6.738;2023-02-28T01:16:12;2.90;55.40
48551;DHT22;34397;51.176;6.738;2023-02-28T01:18:44;2.90;55.60
48551;DHT22;34397;51.176;6.738;2023-02-28T01:21:19;2.90;55.40
48551;DHT22;34397;51.176;6.738;2023-02-28T01:23:52;2.90;55.60
48551;DHT22;34397;51.176;6.738;2023-02-28T01:26:23;2.90;55.70
48551;DHT22;34397;51.176;6.738;2023-02-28T01:28:56;2.90;55.70
48551;DHT22;34397;51.176;6.738;2023-02-28T01:31:28;2.90;55.90
48551;DHT22;34397;51.176;6.738;2023-02-28T01:34:00;2.90;55.60
48551;DHT22;34397;51.176;6.738;2023-02-28T01:36:33;2.90;55.70
48551;DHT22;34397;51.176;6.738;2023-02-28T01:39:05;2.90;55.40
48551;DHT22;34397;51.176;6.738;2023-02-28T01:41:36;2.90;55.80
48551;DHT22;34397;51.176;6.738;2023-02-28T01:47:29;2.90;55.10
48551;DHT22;34397;51.176;6.738;2023-02-28T01:50:06;2.80;55.20
48551;DHT22;34397;51.176;6.738;2023-02-28T01:52:43;2.80;55.30
48551;DHT22;34397;51.176;6.738;2023-02-28T01:55:17;2.80;55.20
48551;DHT22;34397;51.176;6.738;2023-02-28T01:57:52;2.70;55.20
48551;DHT22;34397;51.176;6.738;2023-02-28T02:00:27;2.70;55.30
48551;DHT22;34397;51.176;6.738;2023-02-28T02:03:05;2.70;55.70
48551;DHT22;34397;51.176;6.738;2023-02-28T02:05:39;2.70;55.60
48551;DHT22;34397;51.176;6.738;2023-02-28T02:08:17;2.60;55.90
48551;DHT22;34397;51.176;6.738;2023-02-28T02:10:51;2.60;55.90
48551;DHT22;34397;51.176;6.738;2023-02-28T02:13:37;2.60;56.20
48551;DHT22;34397;51.176;6.738;2023-02-28T02:16:33;2.60;56.10
48551;DHT22;34397;51.176;6.738;2023-02-28T02:19:21;2.60;56.10
48551;DHT22;34397;51.176;6.738;2023-02-28T02:22:28;2.60;56.30
48551;DHT22;34397;51.176;6.738;2023-02-28T02:25:40;2.60;56.30
48551;DHT22;34397;51.176;6.738;2023-02-28T02:28:34;2.50;56.20
48551;DHT22;34397;51.176;6.738;2023-02-28T02:31:52;2.50;56.30
48551;DHT22;34397;51.176;6.738;2023-02-28T02:34:41;2.50;56.40
48551;DHT22;34397;51.176;6.738;2023-02-28T02:37:26;2.50;56.50
48551;DHT22;34397;51.176;6.738;2023-02-28T02:40:07;2.50;56.50
48551;DHT22;34397;51.176;6.738;2023-02-28T02:42:47;2.40;56.80
48551;DHT22;34397;51.176;6.738;2023-02-28T02:45:25;2.40;56.70
48551;DHT22;34397;51.176;6.738;2023-02-28T02:47:59;2.40;56.80
48551;DHT22;34397;51.176;6.738;2023-02-28T02:50:36;2.40;56.70
48551;DHT22;34397;51.176;6.738;2023-02-28T02:53:10;2.30;56.50
48551;DHT22;34397;51.176;6.738;2023-02-28T02:55:46;2.30;56.60
48551;DHT22;34397;51.176;6.738;2023-02-28T02:58:26;2.20;56.60
48551;DHT22;34397;51.176;6.738;2023-02-28T03:01:01;2.20;56.90
48551;DHT22;34397;51.176;6.738;2023-02-28T03:03:35;2.20;57.10
48551;DHT22;34397;51.176;6.738;2023-02-28T03:06:09;2.10;57.20
48551;DHT22;34397;51.176;6.738;2023-02-28T03:08:40;2.10;57.10
48551;DHT22;34397;51.176;6.738;2023-02-28T03:11:14;2.10;57.20
48551;DHT22;34397;51.176;6.738;2023-02-28T03:14:22;2.00;57.20
48551;DHT22;34397;51.176;6.738;2023-02-28T03:17:30;2.00;57.00
48551;DHT22;34397;51.176;6.738;2023-02-28T03:20:31;1.90;57.20
48551;DHT22;34397;51.176;6.738;2023-02-28T03:23:15;1.90;57.10
48551;DHT22;34397;51.176;6.738;2023-02-28T03:25:55;1.80;57.20
48551;DHT22;34397;51.176;6.738;2023-02-28T03:28:32;1.80;57.50
48551;DHT22;34397;51.176;6.738;2023-02-28T03:31:13;1.80;58.30
48551;DHT22;34397;51.176;6.738;2023-02-28T03:33:51;1.70;58.00
48551;DHT22;34397;51.176;6.738;2023-02-28T03:36:30;1.70;58.30
48551;DHT22;34397;51.176;6.738;2023-02-28T03:39:10;1.70;58.40
48551;DHT22;34397;51.176;6.738;2023-02-28T03:41:47;1.70;58.90
48551;DHT22;34397;51.176;6.738;2023-02-28T03:44:26;1.70;58.70
48551;DHT22;34397;51.176;6.738;2023-02-28T03:47:03;1.70;58.70
48551;DHT22;34397;51.176;6.738;2023-02-28T03:49:41;1.70;58.80
48551;DHT22;34397;51.176;6.738;2023-02-28T03:52:15;1.70;58.80
48551;DHT22;34397;51.176;6.738;2023-02-28T03:54:55;1.70;59.30
48551;DHT22;34397;51.176;6.738;2023-02-28T03:57:34;1.80;59.00
48551;DHT22;34397;51.176;6.738;2023-02-28T04:00:12;1.80;58.90
48551;DHT22;34397;51.176;6.738;2023-02-28T04:02:46;1.80;59.00
48551;DHT22;34397;51.176;6.738;2023-02-28T04:05:23;1.80;58.80
48551;DHT22;34397;51.176;6.738;2023-02-28T04:08:03;1.80;58.90
48551;DHT22;34397;51.176;6.738;2023-02-28T04:10:37;1.90;58.30
48551;DHT22;34397;51.176;6.738;2023-02-28T04:13:09;1.90;58.60
48551;DHT22;34397;51.176;6.738;2023-02-28T04:15:40;1.90;58.90
48551;DHT22;34397;51.176;6.738;2023-02-28T04:18:12;1.90;58.60
48551;DHT22;34397;51.176;6.738;2023-02-28T04:20:44;1.90;58.10
48551;DHT22;34397;51.176;6.738;2023-02-28T04:23:16;1.90;58.20
48551;DHT22;34397;51.176;6.738;2023-02-28T04:25:49;1.90;58.90
48551;DHT22;34397;51.176;6.738;2023-02-28T04:28:21;1.90;58.00
48551;DHT22;34397;51.176;6.738;2023-02-28T04:30:56;1.90;58.00
48551;DHT22;34397;51.176;6.738;2023-02-28T04:33:30;1.90;58.10
48551;DHT22;34397;51.176;6.738;2023-02-28T04:36:04;1.80;57.70
48551;DHT22;34397;51.176;6.738;2023-02-28T04:38:38;1.80;57.70
48551;DHT22;34397;51.176;6.738;2023-02-28T04:41:12;1.80;57.80
48551;DHT22;34397;51.176;6.738;2023-02-28T04:43:44;1.80;57.80
48551;DHT22;34397;51.176;6.738;2023-02-28T04:46:16;1.80;57.80
48551;DHT22;34397;51.176;6.738;2023-02-28T04:48:48;1.80;58.00
48551;DHT22;34397;51.176;6.738;2023-02-28T04:51:20;1.80;58.10
48551;DHT22;34397;51.176;6.738;2023-02-28T04:53:52;1.80;57.80
48551;DHT22;34397;51.176;6.738;2023-02-28T04:56:25;1.80;57.70
48551;DHT22;34397;51.176;6.738;2023-02-28T04:58:57;1.80;57.60
48551;DHT22;34397;51.176;6.738;2023-02-28T05:01:31;1.70;57.80
48551;DHT22;34397;51.176;6.738;2023-02-28T05:04:04;1.70;57.50
48551;DHT22;34397;51.176;6.738;2023-02-28T05:06:36;1.70;57.70
48551;DHT22;34397;51.176;6.738;2023-02-28T05:09:08;1.70;57.70
48551;DHT22;34397;51.176;6.738;2023-02-28T05:11:43;1.70;57.80
48551;DHT22;34397;51.176;6.738;2023-02-28T05:14:14;1.60;57.70
48551;DHT22;34397;51.176;6.738;2023-02-28T05:16:46;1.60;57.80
48551;DHT22;34397;51.176;6.738;2023-02-28T05:19:18;1.60;58.00
48551;DHT22;34397;51.176;6.738;2023-02-28T05:21:53;1.60;57.90
48551;DHT22;34397;51.176;6.738;2023-02-28T05:24:25;1.60;57.70
48551;DHT22;34397;51.176;6.738;2023-02-28T05:26:59;1.60;57.70
48551;DHT22;34397;51.176;6.738;2023-02-28T05:29:33;1.50;57.70
48551;DHT22;34397;51.176;6.738;2023-02-28T05:32:12;1.50;57.50
48551;DHT22;34397;51.176;6.738;2023-02-28T05:34:46;1.50;57.70
48551;DHT22;34397;51.176;6.738;2023-02-28T05:37:17;1.50;57.80
48551;DHT22;34397;51.176;6.738;2023-02-28T05:39:49;1.50;57.90
48551;DHT22;34397;51.176;6.738;2023-02-28T05:42:22;1.50;57.90
48551;DHT22;34397;51.176;6.738;2023-02-28T05:44:54;1.40;57.60
48551;DHT22;34397;51.176;6.738;2023-02-28T05:47:26;1.40;57.50
48551;DHT22;34397;51.176;6.738;2023-02-28T05:49:58;1.40;57.80
48551;DHT22;34397;51.176;6.738;2023-02-28T05:52:30;1.40;57.70
48551;DHT22;34397;51.176;6.738;2023-02-28T05:55:02;1.40;58.00
48551;DHT22;34397;51.176;6.738;2023-02-28T05:57:35;1.40;57.80
48551;DHT22;34397;51.176;6.738;2023-02-28T06:00:09;1.40;58.10
48551;DHT22;34397;51.176;6.738;2023-02-28T06:02:41;1.40;58.20
48551;DHT22;34397;51.176;6.738;2023-02-28T06:05:15;1.40;57.70
48551;DHT22;34397;51.176;6.738;2023-02-28T06:07:47;1.30;57.70
48551;DHT22;34397;51.176;6.738;2023-02-28T06:10:19;1.30;57.80
48551;DHT22;34397;51.176;6.738;2023-02-28T06:12:52;1.30;57.70
48551;DHT22;34397;51.176;6.738;2023-02-28T06:15:24;1.30;57.40
48551;DHT22;34397;51.176;6.738;2023-02-28T06:17:56;1.30;57.60
48551;DHT22;34397;51.176;6.738;2023-02-28T06:20:28;1.20;57.90
48551;DHT22;34397;51.176;6.738;2023-02-28T06:23:00;1.20;57.50
48551;DHT22;34397;51.176;6.738;2023-02-28T06:25:32;1.30;57.70
48551;DHT22;34397;51.176;6.738;2023-02-28T06:28:06;1.20;57.40
48551;DHT22;34397;51.176;6.738;2023-02-28T06:30:38;1.20;57.60
48551;DHT22;34397;51.176;6.738;2023-02-28T06:33:10;1.30;57.10
48551;DHT22;34397;51.176;6.738;2023-02-28T06:35:43;1.30;57.20
48551;DHT22;34397;51.176;6.738;2023-02-28T06:38:15;1.30;57.00
48551;DHT22;34397;51.176;6.738;2023-02-28T06:40:53;1.30;56.30
48551;DHT22;34397;51.176;6.738;2023-02-28T06:43:28;1.30;55.80
48551;DHT22;34397;51.176;6.738;2023-02-28T06:46:04;1.20;56.60
48551;DHT22;34397;51.176;6.738;2023-02-28T06:48:38;1.30;56.40
48551;DHT22;34397;51.176;6.738;2023-02-28T06:51:13;1.30;56.50
48551;DHT22;34397;51.176;6.738;2023-02-28T06:53:46;1.30;56.20
48551;DHT22;34397;51.176;6.738;2023-02-28T06:56:18;1.30;56.10
48551;DHT22;34397;51.176;6.738;2023-02-28T06:58:52;1.30;56.20
48551;DHT22;34397;51.176;6.738;2023-02-28T07:01:24;1.30;55.70
48551;DHT22;34397;51.176;6.738;2023-02-28T07:03:58;1.30;55.50
48551;DHT22;34397;51.176;6.738;2023-02-28T07:06:31;1.40;55.90
48551;DHT22;34397;51.176;6.738;2023-02-28T07:09:03;1.40;55.30
48551;DHT22;34397;51.176;6.738;2023-02-28T07:11:35;1.40;55.90
48551;DHT22;34397;51.176;6.738;2023-02-28T07:14:08;1.40;55.50
48551;DHT22;34397;51.176;6.738;2023-02-28T07:16:40;1.40;54.90
48551;DHT22;34397;51.176;6.738;2023-02-28T07:19:12;1.50;54.90
48551;DHT22;34397;51.176;6.738;2023-02-28T07:21:44;1.50;54.80
48551;DHT22;34397;51.176;6.738;2023-02-28T07:24:16;1.50;54.70
48551;DHT22;34397;51.176;6.738;2023-02-28T07:26:48;1.50;54.50
48551;DHT22;34397;51.176;6.738;2023-02-28T07:29:21;1.50;54.30
48551;DHT22;34397;51.176;6.738;2023-02-28T07:31:53;1.60;54.20
48551;DHT22;34397;51.176;6.738;2023-02-28T07:34:25;1.60;54.00
48551;DHT22;34397;51.176;6.738;2023-02-28T07:36:57;1.60;53.80
48551;DHT22;34397;51.176;6.738;2023-02-28T07:39:29;1.60;53.70
48551;DHT22;34397;51.176;6.738;2023-02-28T07:42:04;1.70;53.40
48551;DHT22;34397;51.176;6.738;2023-02-28T07:44:38;1.70;53.60
48551;DHT22;34397;51.176;6.738;2023-02-28T07:47:10;1.70;53.20
48551;DHT22;34397;51.176;6.738;2023-02-28T07:49:42;1.80;53.20
48551;DHT22;34397;51.176;6.738;2023-02-28T07:52:14;1.80;53.10
48551;DHT22;34397;51.176;6.738;2023-02-28T07:54:46;1.80;52.60
48551;DHT22;34397;51.176;6.738;2023-02-28T07:57:18;1.80;52.80
48551;DHT22;34397;51.176;6.738;2023-02-28T07:59:51;1.90;52.40
48551;DHT22;34397;51.176;6.738;2023-02-28T08:02:23;1.90;52.60
48551;DHT22;34397;51.176;6.738;2023-02-28T08:04:55;2.00;51.90
48551;DHT22;34397;51.176;6.738;2023-02-28T08:07:27;2.00;51.80
48551;DHT22;34397;51.176;6.738;2023-02-28T08:09:59;2.00;52.00
48551;DHT22;34397;51.176;6.738;2023-02-28T08:12:31;2.00;51.50
48551;DHT22;34397;51.176;6.738;2023-02-28T08:15:05;2.10;51.10
48551;DHT22;34397;51.176;6.738;2023-02-28T08:17:38;2.10;50.90
48551;DHT22;34397;51.176;6.738;2023-02-28T08:20:11;2.20;50.80
48551;DHT22;34397;51.176;6.738;2023-02-28T08:22:44;2.20;50.70
48551;DHT22;34397;51.176;6.738;2023-02-28T08:25:16;2.20;49.70
48551;DHT22;34397;51.176;6.738;2023-02-28T08:27:50;2.30;50.00
48551;DHT22;34397;51.176;6.738;2023-02-28T08:30:23;2.30;48.90
48551;DHT22;34397;51.176;6.738;2023-02-28T08:32:55;2.30;48.70
48551;DHT22;34397;51.176;6.738;2023-02-28T08:35:27;2.40;49.00
48551;DHT22;34397;51.176;6.738;2023-02-28T08:37:59;2.40;48.40
48551;DHT22;34397;51.176;6.738;2023-02-28T08:40:31;2.40;48.40
48551;DHT22;34397;51.176;6.738;2023-02-28T08:43:02;2.40;48.40
48551;DHT22;34397;51.176;6.738;2023-02-28T08:45:36;2.50;48.40
48551;DHT22;34397;51.176;6.738;2023-02-28T08:48:08;2.50;48.10
48551;DHT22;34397;51.176;6.738;2023-02-28T08:50:40;2.60;47.40
48551;DHT22;34397;51.176;6.738;2023-02-28T08:53:12;2.70;47.20
48551;DHT22;34397;51.176;6.738;2023-02-28T08:55:43;2.70;47.10
48551;DHT22;34397;51.176;6.738;2023-02-28T08:58:16;2.70;46.70
48551;DHT22;34397;51.176;6.738;2023-02-28T09:00:50;2.80;46.80
48551;DHT22;34397;51.176;6.738;2023-02-28T09:03:22;2.80;46.00
48551;DHT22;34397;51.176;6.738;2023-02-28T09:05:56;2.90;46.50
48551;DHT22;34397;51.176;6.738;2023-02-28T09:08:30;2.90;46.00
48551;DHT22;34397;51.176;6.738;2023-02-28T09:11:02;2.90;45.80
48551;DHT22;34397;51.176;6.738;2023-02-28T09:13:35;3.00;45.50
48551;DHT22;34397;51.176;6.738;2023-02-28T09:16:10;3.00;45.90
48551;DHT22;34397;51.176;6.738;2023-02-28T09:18:44;3.10;46.10
48551;DHT22;34397;51.176;6.738;2023-02-28T09:21:17;3.10;45.10
48551;DHT22;34397;51.176;6.738;2023-02-28T09:23:50;3.10;45.30
48551;DHT22;34397;51.176;6.738;2023-02-28T09:26:25;3.20;45.50
48551;DHT22;34397;51.176;6.738;2023-02-28T09:28:58;3.30;45.00
48551;DHT22;34397;51.176;6.738;2023-02-28T09:31:31;3.30;45.40
48551;DHT22;34397;51.176;6.738;2023-02-28T09:34:04;3.30;44.80
48551;DHT22;34397;51.176;6.738;2023-02-28T09:36:35;3.30;44.30
48551;DHT22;34397;51.176;6.738;2023-02-28T09:39:08;3.30;44.00
48551;DHT22;34397;51.176;6.738;2023-02-28T09:41:42;3.40;43.80
48551;DHT22;34397;51.176;6.738;2023-02-28T09:44:24;3.50;43.20
48551;DHT22;34397;51.176;6.738;2023-02-28T09:47:07;3.50;43.30
48551;DHT22;34397;51.176;6.738;2023-02-28T09:49:45;3.60;43.20
48551;DHT22;34397;51.176;6.738;2023-02-28T09:52:22;3.70;43.50
48551;DHT22;34397;51.176;6.738;2023-02-28T09:55:00;3.70;43.30
48551;DHT22;34397;51.176;6.738;2023-02-28T09:57:38;3.80;43.60
48551;DHT22;34397;51.176;6.738;2023-02-28T10:00:16;3.90;42.80
48551;DHT22;34397;51.176;6.738;2023-02-28T10:02:58;3.90;43.20
48551;DHT22;34397;51.176;6.738;2023-02-28T10:05:39;4.00;42.30
48551;DHT22;34397;51.176;6.738;2023-02-28T10:08:14;4.10;43.20
48551;DHT22;34397;51.176;6.738;2023-02-28T10:10:50;4.10;42.80
48551;DHT22;34397;51.176;6.738;2023-02-28T10:13:32;4.20;42.50
48551;DHT22;34397;51.176;6.738;2023-02-28T10:16:07;4.20;42.60
48551;DHT22;34397;51.176;6.738;2023-02-28T10:18:48;4.20;42.50
48551;DHT22;34397;51.176;6.738;2023-02-28T10:21:27;4.20;42.30
48551;DHT22;34397;51.176;6.738;2023-02-28T10:24:05;4.30;41.90
48551;DHT22;34397;51.176;6.738;2023-02-28T10:26:46;4.30;41.80
48551;DHT22;34397;51.176;6.738;2023-02-28T10:29:19;4.30;41.90
48551;DHT22;34397;51.176;6.738;2023-02-28T10:31:51;4.30;41.90
48551;DHT22;34397;51.176;6.738;2023-02-28T10:34:25;4.30;42.10
48551;DHT22;34397;51.176;6.738;2023-02-28T10:36:59;4.30;41.70
48551;DHT22;34397;51.176;6.738;2023-02-28T10:39:40;4.30;41.80
48551;DHT22;34397;51.176;6.738;2023-02-28T10:42:24;4.40;41.10
48551;DHT22;34397;51.176;6.738;2023-02-28T10:45:11;4.40;41.80
48551;DHT22;34397;51.176;6.738;2023-02-28T10:47:53;4.50;41.20
48551;DHT22;34397;51.176;6.738;2023-02-28T10:50:42;4.60;42.10
48551;DHT22;34397;51.176;6.738;2023-02-28T10:53:28;4.90;42.30
48551;DHT22;34397;51.176;6.738;2023-02-28T10:56:05;5.30;41.80
48551;DHT22;34397;51.176;6.738;2023-02-28T10:58:51;5.80;40.80
48551;DHT22;34397;51.176;6.738;2023-02-28T11:01:34;6.30;40.30
48551;DHT22;34397;51.176;6.738;2023-02-28T11:04:18;7.00;39.30
48551;DHT22;34397;51.176;6.738;2023-02-28T11:06:58;7.60;38.20
48551;DHT22;34397;51.176;6.738;2023-02-28T11:09:34;8.20;37.30
48551;DHT22;34397;51.176;6.738;2023-02-28T11:12:21;8.70;36.60
48551;DHT22;34397;51.176;6.738;2023-02-28T11:14:56;9.20;36.30
48551;DHT22;34397;51.176;6.738;2023-02-28T11:17:31;9.70;35.20
48551;DHT22;34397;51.176;6.738;2023-02-28T11:20:05;10.20;34.30
48551;DHT22;34397;51.176;6.738;2023-02-28T11:22:44;10.60;33.60
48551;DHT22;34397;51.176;6.738;2023-02-28T11:25:22;11.00;32.90
48551;DHT22;34397;51.176;6.738;2023-02-28T11:27:56;11.30;32.90
48551;DHT22;34397;51.176;6.738;2023-02-28T11:30:37;11.60;32.90
48551;DHT22;34397;51.176;6.738;2023-02-28T11:33:26;12.00;32.00
48551;DHT22;34397;51.176;6.738;2023-02-28T11:36:03;12.30;31.50
48551;DHT22;34397;51.176;6.738;2023-02-28T11:38:41;12.50;31.10
48551;DHT22;34397;51.176;6.738;2023-02-28T11:41:38;12.70;30.80
48551;DHT22;34397;51.176;6.738;2023-02-28T11:44:27;12.80;30.90
48551;DHT22;34397;51.176;6.738;2023-02-28T11:47:12;13.00;30.40
48551;DHT22;34397;51.176;6.738;2023-02-28T11:49:59;13.20;30.00
48551;DHT22;34397;51.176;6.738;2023-02-28T11:52:45;13.40;30.10
48551;DHT22;34397;51.176;6.738;2023-02-28T11:55:25;13.60;30.00
48551;DHT22;34397;51.176;6.738;2023-02-28T11:58:17;13.80;29.90
48551;DHT22;34397;51.176;6.738;2023-02-28T12:01:11;14.10;30.00
48551;DHT22;34397;51.176;6.738;2023-02-28T12:03:58;14.30;29.20
48551;DHT22;34397;51.176;6.738;2023-02-28T12:06:40;14.30;29.30
48551;DHT22;34397;51.176;6.738;2023-02-28T12:09:40;14.50;29.10
48551;DHT22;34397;51.176;6.738;2023-02-28T12:12:27;14.70;29.50
48551;DHT22;34397;51.176;6.738;2023-02-28T12:15:28;14.90;28.80
48551;DHT22;34397;51.176;6.738;2023-02-28T12:21:23;15.00;28.50
48551;DHT22;34397;51.176;6.738;2023-02-28T12:24:18;15.10;28.20
48551;DHT22;34397;51.176;6.738;2023-02-28T12:27:01;15.10;28.40
48551;DHT22;34397;51.176;6.738;2023-02-28T12:29:41;15.10;28.40
48551;DHT22;34397;51.176;6.738;2023-02-28T12:32:19;15.10;28.30
48551;DHT22;34397;51.176;6.738;2023-02-28T12:34:57;15.20;28.50
48551;DHT22;34397;51.176;6.738;2023-02-28T12:37:37;15.20;28.10
48551;DHT22;34397;51.176;6.738;2023-02-28T12:40:13;15.20;28.20
48551;DHT22;34397;51.176;6.738;2023-02-28T12:42:50;15.20;28.00
48551;DHT22;34397;51.176;6.738;2023-02-28T12:45:27;15.10;28.40
48551;DHT22;34397;51.176;6.738;2023-02-28T12:48:08;15.10;28.00
48551;DHT22;34397;51.176;6.738;2023-02-28T12:50:44;15.10;28.40
48551;DHT22;34397;51.176;6.738;2023-02-28T12:53:18;15.10;28.00
48551;DHT22;34397;51.176;6.738;2023-02-28T12:56:03;15.20;28.30
48551;DHT22;34397;51.176;6.738;2023-02-28T12:58:45;15.20;28.40
48551;DHT22;34397;51.176;6.738;2023-02-28T13:01:42;15.20;28.60
48551;DHT22;34397;51.176;6.738;2023-02-28T13:04:42;15.20;28.80
48551;DHT22;34397;51.176;6.738;2023-02-28T13:07:49;15.30;28.50
48551;DHT22;34397;51.176;6.738;2023-02-28T13:10:43;15.60;28.00
48551;DHT22;34397;51.176;6.738;2023-02-28T13:13:17;15.80;28.00
48551;DHT22;34397;51.176;6.738;2023-02-28T13:15:58;16.00;27.60
48551;DHT22;34397;51.176;6.738;2023-02-28T13:18:35;16.10;27.90
48551;DHT22;34397;51.176;6.738;2023-02-28T13:21:22;16.20;28.00
48551;DHT22;34397;51.176;6.738;2023-02-28T13:24:02;16.10;28.20
48551;DHT22;34397;51.176;6.738;2023-02-28T13:33:37;15.90;28.20
48551;DHT22;34397;51.176;6.738;2023-02-28T13:36:45;15.90;27.90
48551;DHT22;34397;51.176;6.738;2023-02-28T13:39:45;16.00;27.70
48551;DHT22;34397;51.176;6.738;2023-02-28T13:42:33;16.20;28.30
48551;DHT22;34397;51.176;6.738;2023-02-28T13:45:25;16.50;27.80
48551;DHT22;34397;51.176;6.738;2023-02-28T13:48:00;16.60;27.40
48551;DHT22;34397;51.176;6.738;2023-02-28T13:50:36;16.60;27.10
48551;DHT22;34397;51.176;6.738;2023-02-28T13:53:38;16.40;27.70
48551;DHT22;34397;51.176;6.738;2023-02-28T13:56:34;16.50;27.60
48551;DHT22;34397;51.176;6.738;2023-02-28T13:59:21;16.70;27.30
48551;DHT22;34397;51.176;6.738;2023-02-28T14:02:09;16.60;27.00
48551;DHT22;34397;51.176;6.738;2023-02-28T14:05:05;16.30;26.90
48551;DHT22;34397;51.176;6.738;2023-02-28T14:07:44;16.20;26.80
48551;DHT22;34397;51.176;6.738;2023-02-28T14:10:25;15.90;26.90
48551;DHT22;34397;51.176;6.738;2023-02-28T14:13:11;15.70;27.20
48551;DHT22;34397;51.176;6.738;2023-02-28T14:15:54;15.60;27.20
48551;DHT22;34397;51.176;6.738;2023-02-28T14:18:30;15.60;27.70
48551;DHT22;34397;51.176;6.738;2023-02-28T14:21:11;15.70;27.40
48551;DHT22;34397;51.176;6.738;2023-02-28T14:24:20;15.80;27.50
48551;DHT22;34397;51.176;6.738;2023-02-28T14:27:26;16.00;27.30
48551;DHT22;34397;51.176;6.738;2023-02-28T14:30:23;16.00;27.40
48551;DHT22;34397;51.176;6.738;2023-02-28T14:33:11;16.00;27.20
48551;DHT22;34397;51.176;6.738;2023-02-28T14:36:07;16.10;27.50
48551;DHT22;34397;51.176;6.738;2023-02-28T14:38:45;16.30;27.20
48551;DHT22;34397;51.176;6.738;2023-02-28T14:41:23;16.30;27.00
48551;DHT22;34397;51.176;6.738;2023-02-28T14:43:57;16.20;26.80
48551;DHT22;34397;51.176;6.738;2023-02-28T14:46:35;16.10;27.10
48551;DHT22;34397;51.176;6.738;2023-02-28T14:49:18;16.10;27.20
48551;DHT22;34397;51.176;6.738;2023-02-28T14:52:03;16.00;27.10
48551;DHT22;34397;51.176;6.738;2023-02-28T14:54:40;16.10;27.10
48551;DHT22;34397;51.176;6.738;2023-02-28T14:57:23;16.10;27.00
48551;DHT22;34397;51.176;6.738;2023-02-28T15:00:07;16.10;27.10
48551;DHT22;34397;51.176;6.738;2023-02-28T15:02:44;16.10;27.30
48551;DHT22;34397;51.176;6.738;2023-02-28T15:05:23;16.00;27.20
48551;DHT22;34397;51.176;6.738;2023-02-28T15:08:11;16.00;27.20
48551;DHT22;34397;51.176;6.738;2023-02-28T15:10:45;15.90;27.40
48551;DHT22;34397;51.176;6.738;2023-02-28T15:13:23;15.90;27.10
48551;DHT22;34397;51.176;6.738;2023-02-28T15:16:00;15.80;27.20
48551;DHT22;34397;51.176;6.738;2023-02-28T15:18:41;15.70;27.50
48551;DHT22;34397;51.176;6.738;2023-02-28T15:21:18;15.60;27.50
48551;DHT22;34397;51.176;6.738;2023-02-28T15:23:54;15.50;27.80
48551;DHT22;34397;51.176;6.738;2023-02-28T15:26:30;15.40;27.80
48551;DHT22;34397;51.176;6.738;2023-02-28T15:29:07;15.30;27.80
48551;DHT22;34397;51.176;6.738;2023-02-28T15:31:45;15.20;27.90
48551;DHT22;34397;51.176;6.738;2023-02-28T15:34:22;15.10;28.00
48551;DHT22;34397;51.176;6.738;2023-02-28T15:36:56;15.00;28.10
48551;DHT22;34397;51.176;6.738;2023-02-28T15:39:29;14.90;28.20
48551;DHT22;34397;51.176;6.738;2023-02-28T15:42:10;14.80;28.20
48551;DHT22;34397;51.176;6.738;2023-02-28T15:44:43;14.60;28.40
48551;DHT22;34397;51.176;6.738;2023-02-28T15:47:18;14.40;28.60
48551;DHT22;34397;51.176;6.738;2023-02-28T15:49:52;14.20;29.00
48551;DHT22;34397;51.176;6.738;2023-02-28T15:52:29;14.10;29.00
48551;DHT22;34397;51.176;6.738;2023-02-28T15:55:10;13.80;29.30
48551;DHT22;34397;51.176;6.738;2023-02-28T15:57:44;13.60;29.50
48551;DHT22;34397;51.176;6.738;2023-02-28T16:00:21;13.40;29.80
48551;DHT22;34397;51.176;6.738;2023-02-28T16:02:54;13.20;29.90
48551;DHT22;34397;51.176;6.738;2023-02-28T16:05:27;13.00;30.20
48551;DHT22;34397;51.176;6.738;2023-02-28T16:08:12;12.80;30.50
48551;DHT22;34397;51.176;6.738;2023-02-28T16:10:46;12.60;30.70
48551;DHT22;34397;51.176;6.738;2023-02-28T16:13:18;12.40;31.10
48551;DHT22;34397;51.176;6.738;2023-02-28T16:15:51;12.20;31.80
48551;DHT22;34397;51.176;6.738;2023-02-28T16:18:24;12.00;31.20
48551;DHT22;34397;51.176;6.738;2023-02-28T16:20:56;11.90;31.60
48551;DHT22;34397;51.176;6.738;2023-02-28T16:23:28;11.70;32.00
48551;DHT22;34397;51.176;6.738;2023-02-28T16:26:00;11.50;32.10
48551;DHT22;34397;51.176;6.738;2023-02-28T16:28:34;11.40;32.20
48551;DHT22;34397;51.176;6.738;2023-02-28T16:31:09;11.30;32.60
48551;DHT22;34397;51.176;6.738;2023-02-28T16:33:47;11.10;32.70
48551;DHT22;34397;51.176;6.738;2023-02-28T16:36:21;11.00;33.00
48551;DHT22;34397;51.176;6.738;2023-02-28T16:38:55;10.90;33.80
48551;DHT22;34397;51.176;6.738;2023-02-28T16:41:28;10.70;33.70
48551;DHT22;34397;51.176;6.738;2023-02-28T16:44:12;10.60;34.00
48551;DHT22;34397;51.176;6.738;2023-02-28T16:46:46;10.40;34.20
48551;DHT22;34397;51.176;6.738;2023-02-28T16:49:18;10.10;34.30
48551;DHT22;34397;51.176;6.738;2023-02-28T16:51:50;10.00;34.90
48551;DHT22;34397;51.176;6.738;2023-02-28T16:54:22;9.80;35.00
48551;DHT22;34397;51.176;6.738;2023-02-28T16:56:54;9.70;35.20
48551;DHT22;34397;51.176;6.738;2023-02-28T16:59:27;9.50;35.40
48551;DHT22;34397;51.176;6.738;2023-02-28T17:02:01;9.40;36.00